Time;durP1;ratioP1;P1;durP2;ratioP2;P2;SDS_P1;SDS_P2;PMS_P1;PMS_P2;Temp;Humidity;BMP_temperature;BMP_pressure;BME280_temperature;BME280_humidity;BME280_pressure;Samples;Min_cycle;Max_cycle;Signal;HPM_P1;HPM_P2
2022/03/08 00:01:06;;;;;;;5.83;4.60;;;-1.10;99.90;;;;;;4991793;28;20552;-54
2022/03/08 00:03:33;;;;;;;6.10;4.20;;;-1.10;99.90;;;;;;4992780;28;20548;-54
2022/03/08 00:06:00;;;;;;;4.73;4.30;;;-1.10;99.90;;;;;;4992767;28;20564;-54
2022/03/08 00:08:26;;;;;;;4.50;3.70;;;-1.10;99.90;;;;;;4993056;28;20552;-54
2022/03/08 00:10:53;;;;;;;7.47;5.10;;;-1.20;99.90;;;;;;4992420;28;20496;-54
2022/03/08 00:13:21;;;;;;;7.63;4.07;;;-1.20;99.90;;;;;;4993162;28;20572;-55
2022/03/08 00:15:49;;;;;;;4.63;4.27;;;-1.20;99.90;;;;;;4992483;28;20503;-53
2022/03/08 00:18:17;;;;;;;6.47;4.20;;;-1.20;99.90;;;;;;4993029;28;21031;-53
2022/03/08 00:20:43;;;;;;;6.60;4.20;;;-1.20;99.90;;;;;;4995858;28;20467;-55
2022/03/08 00:23:10;;;;;;;5.00;4.10;;;-1.20;99.90;;;;;;4992633;28;20520;-54
2022/03/08 00:25:36;;;;;;;5.30;4.10;;;-1.30;99.90;;;;;;4991159;28;20552;-55
2022/03/08 00:28:03;;;;;;;6.70;4.80;;;-1.30;99.90;;;;;;4992697;28;21061;-55
2022/03/08 00:30:31;;;;;;;6.00;4.63;;;-1.40;99.90;;;;;;4991958;28;20547;-54
2022/03/08 00:32:58;;;;;;;5.23;4.70;;;-1.40;99.90;;;;;;4991281;28;21017;-53
2022/03/08 00:35:26;;;;;;;4.60;4.10;;;-1.40;99.90;;;;;;4991048;28;20460;-54
2022/03/08 00:37:55;;;;;;;4.43;4.03;;;-1.40;99.90;;;;;;4992280;28;20565;-55
2022/03/08 00:40:25;;;;;;;5.43;3.93;;;-1.50;99.90;;;;;;4991257;28;21026;-55
2022/03/08 00:42:52;;;;;;;5.00;4.00;;;-1.60;99.90;;;;;;4991251;28;20515;-54
2022/03/08 00:45:20;;;;;;;5.83;4.20;;;-1.60;99.90;;;;;;4990150;28;20981;-54
2022/03/08 00:47:48;;;;;;;4.20;3.80;;;-1.60;99.90;;;;;;4990231;28;20523;-54
2022/03/08 00:50:16;;;;;;;4.33;3.73;;;-1.60;99.90;;;;;;4990379;28;20456;-54
2022/03/08 00:52:43;;;;;;;4.73;4.07;;;-1.60;98.50;;;;;;4991418;28;20476;-55
2022/03/08 00:55:11;;;;;;;4.53;4.13;;;-1.60;99.90;;;;;;4992053;28;20551;-54
2022/03/08 00:57:38;;;;;;;4.13;3.73;;;-1.60;99.90;;;;;;4991253;28;21065;-55
2022/03/08 01:00:07;;;;;;;3.77;3.57;;;-1.60;99.90;;;;;;4990876;28;21017;-55
2022/03/08 01:02:34;;;;;;;5.60;4.00;;;-1.60;99.90;;;;;;4988547;28;21001;-55
2022/03/08 01:05:02;;;;;;;7.30;4.20;;;-1.60;99.90;;;;;;4991445;28;20484;-55
2022/03/08 01:07:28;;;;;;;10.30;4.80;;;-1.60;99.90;;;;;;4990651;28;20500;-55
2022/03/08 01:09:56;;;;;;;5.00;4.60;;;-1.60;99.90;;;;;;4991120;28;20575;-54
2022/03/08 01:12:23;;;;;;;10.10;5.30;;;-1.70;99.90;;;;;;4991320;28;20492;-55
2022/03/08 01:14:49;;;;;;;6.30;5.23;;;-1.60;99.90;;;;;;4991334;28;20547;-55
2022/03/08 01:17:16;;;;;;;7.90;6.37;;;-1.60;99.90;;;;;;4992328;28;20487;-55
2022/03/08 01:19:42;;;;;;;15.90;7.77;;;-1.60;99.90;;;;;;4990564;28;20571;-53
2022/03/08 01:22:11;;;;;;;8.17;7.20;;;-1.60;99.90;;;;;;4991960;28;20543;-54
2022/03/08 01:24:38;;;;;;;12.33;8.73;;;-1.60;99.90;;;;;;4992399;28;20484;-54
2022/03/08 01:27:05;;;;;;;10.73;8.70;;;-1.70;99.90;;;;;;4991065;28;20504;-55
2022/03/08 01:29:31;;;;;;;15.20;9.30;;;-1.70;99.90;;;;;;4991277;28;20520;-54
2022/03/08 01:31:58;;;;;;;14.37;10.80;;;-1.60;99.90;;;;;;4990129;28;20575;-54
2022/03/08 01:34:24;;;;;;;17.73;10.53;;;-1.60;99.90;;;;;;4992064;28;20508;-54
2022/03/08 01:36:51;;;;;;;15.37;11.03;;;-1.70;99.90;;;;;;4991472;28;20882;-54
2022/03/08 01:39:19;;;;;;;11.00;9.33;;;-1.70;99.90;;;;;;4989697;28;20927;-53
2022/03/08 01:41:45;;;;;;;17.53;11.53;;;-1.80;99.90;;;;;;4989328;28;20515;-53
2022/03/08 01:44:13;;;;;;;21.20;10.37;;;-1.80;99.90;;;;;;4991696;28;20545;-54
2022/03/08 01:46:40;;;;;;;20.20;13.10;;;-1.80;99.90;;;;;;4989758;28;20496;-53
2022/03/08 01:49:07;;;;;;;17.83;12.57;;;-1.80;99.90;;;;;;4982928;28;20504;-54
2022/03/08 01:51:36;;;;;;;16.03;12.93;;;-1.80;99.90;;;;;;4990601;28;20472;-54
2022/03/08 01:54:03;;;;;;;14.60;11.90;;;-1.90;99.90;;;;;;4991276;28;20526;-54
2022/03/08 01:56:31;;;;;;;11.30;10.10;;;-1.90;99.90;;;;;;4990029;28;20519;-54
2022/03/08 01:58:58;;;;;;;11.50;9.10;;;-1.90;99.90;;;;;;4990853;28;20511;-54
2022/03/08 02:01:24;;;;;;;11.70;9.67;;;-2.00;99.90;;;;;;4993881;28;20510;-53
2022/03/08 02:03:51;;;;;;;15.10;8.77;;;-2.00;99.90;;;;;;4994901;28;20491;-53
2022/03/08 02:06:17;;;;;;;8.90;8.00;;;-1.90;99.90;;;;;;4995785;28;20484;-55
2022/03/08 02:08:44;;;;;;;11.13;8.37;;;-1.90;99.90;;;;;;4994656;28;20586;-53
2022/03/08 02:11:11;;;;;;;9.87;7.40;;;-2.00;99.90;;;;;;4994155;28;20548;-54
2022/03/08 02:13:40;;;;;;;9.10;6.43;;;-2.00;99.90;;;;;;4995389;28;20480;-54
2022/03/08 02:16:07;;;;;;;6.67;6.07;;;-2.10;99.90;;;;;;4993402;28;20476;-53
2022/03/08 02:18:34;;;;;;;7.37;6.40;;;-2.10;99.90;;;;;;4989430;28;20582;-54
2022/03/08 02:21:05;;;;;;;6.53;5.73;;;-2.00;99.90;;;;;;4998833;28;20510;-54
2022/03/08 02:23:31;;;;;;;6.63;5.67;;;-2.10;99.90;;;;;;4993507;28;20547;-54
2022/03/08 02:25:58;;;;;;;6.43;5.83;;;-2.10;99.90;;;;;;4993592;28;20547;-54
2022/03/08 02:28:25;;;;;;;5.47;4.93;;;-2.00;99.90;;;;;;4993439;28;20599;-54
2022/03/08 02:30:52;;;;;;;5.00;4.60;;;-2.10;99.90;;;;;;4992377;28;20934;-54
2022/03/08 02:33:18;;;;;;;5.43;4.83;;;-2.20;99.90;;;;;;4994285;28;20571;-55
2022/03/08 02:35:45;;;;;;;5.30;4.87;;;-2.20;97.80;;;;;;4993788;28;20500;-55
2022/03/08 02:38:13;;;;;;;5.30;4.80;;;-2.30;83.60;;;;;;4993810;28;20520;-53
2022/03/08 02:40:41;;;;;;;6.87;4.53;;;-2.30;77.90;;;;;;4994207;28;20472;-53
2022/03/08 02:43:10;;;;;;;6.17;4.87;;;-2.30;75.80;;;;;;4994528;28;20453;-55
2022/03/08 02:45:37;;;;;;;4.87;4.37;;;-2.30;68.10;;;;;;4994771;28;20488;-54
2022/03/08 02:48:05;;;;;;;5.03;4.63;;;-2.30;69.50;;;;;;4994283;28;20554;-54
2022/03/08 02:50:31;;;;;;;5.23;4.73;;;-2.40;70.60;;;;;;4993065;28;20937;-54
2022/03/08 02:52:59;;;;;;;7.33;4.47;;;-2.40;69.80;;;;;;4990367;28;21259;-55
2022/03/08 02:55:29;;;;;;;4.13;3.80;;;-2.40;67.50;;;;;;4994343;28;20500;-55
2022/03/08 02:57:57;;;;;;;4.93;4.50;;;-2.40;62.70;;;;;;4993539;28;21060;-55
2022/03/08 03:00:25;;;;;;;4.30;4.00;;;-2.50;71.00;;;;;;4994971;28;20488;-54
2022/03/08 03:02:52;;;;;;;4.53;4.23;;;-2.50;71.00;;;;;;4994674;28;20535;-55
2022/03/08 03:05:19;;;;;;;8.70;4.50;;;-2.40;69.80;;;;;;4993657;28;20465;-54
2022/03/08 03:07:46;;;;;;;5.40;4.90;;;-2.40;82.70;;;;;;4995189;28;20985;-54
2022/03/08 03:10:14;;;;;;;4.27;3.83;;;-2.40;86.50;;;;;;4989278;28;20503;-53
2022/03/08 03:12:42;;;;;;;4.93;4.43;;;-2.40;94.50;;;;;;4993359;28;20998;-55
2022/03/08 03:15:11;;;;;;;4.47;4.07;;;-2.40;99.90;;;;;;4994912;28;20499;-56
2022/03/08 03:17:38;;;;;;;4.13;3.77;;;-2.40;99.90;;;;;;4995682;28;20998;-53
2022/03/08 03:20:07;;;;;;;5.87;4.30;;;-2.40;99.90;;;;;;4993039;28;20564;-54
2022/03/08 03:22:34;;;;;;;3.90;3.50;;;-2.40;99.90;;;;;;4984510;28;20460;-54
2022/03/08 03:25:00;;;;;;;3.93;3.63;;;-2.50;95.70;;;;;;4995958;28;20476;-54
2022/03/08 03:27:27;;;;;;;4.27;3.87;;;-2.40;82.90;;;;;;4995375;28;20492;-54
2022/03/08 03:29:55;;;;;;;4.40;4.07;;;-2.50;79.40;;;;;;4994016;28;20909;-54
2022/03/08 03:32:23;;;;;;;4.30;4.00;;;-2.50;66.20;;;;;;4994986;28;20480;-55
2022/03/08 03:34:49;;;;;;;3.87;3.67;;;-2.50;71.10;;;;;;4996548;28;20457;-56
2022/03/08 03:37:16;;;;;;;4.43;4.03;;;-2.50;71.10;;;;;;4994945;28;20495;-54
2022/03/08 03:39:42;;;;;;;4.07;3.73;;;-2.40;87.60;;;;;;4993993;28;20488;-55
2022/03/08 03:42:09;;;;;;;4.43;4.03;;;-2.50;96.30;;;;;;4993337;28;20496;-55
2022/03/08 03:44:36;;;;;;;3.87;3.50;;;-2.60;99.90;;;;;;4993238;28;20485;-54
2022/03/08 03:47:04;;;;;;;6.27;4.47;;;-2.60;89.00;;;;;;4993114;28;20551;-54
2022/03/08 03:49:31;;;;;;;3.63;3.33;;;-2.60;78.60;;;;;;4992874;28;20576;-53
2022/03/08 03:51:57;;;;;;;3.77;3.47;;;-2.50;81.30;;;;;;4993376;28;20491;-54
2022/03/08 03:54:24;;;;;;;3.60;3.40;;;-2.40;95.30;;;;;;4989777;28;21114;-54
2022/03/08 03:56:51;;;;;;;3.47;3.27;;;-2.40;85.80;;;;;;4985719;28;20551;-53
2022/03/08 03:59:18;;;;;;;4.10;3.80;;;-2.40;82.30;;;;;;4991929;28;20527;-53
2022/03/08 04:01:45;;;;;;;4.57;4.17;;;-2.40;90.40;;;;;;4991931;28;20577;-55
2022/03/08 04:04:13;;;;;;;3.40;3.10;;;-2.50;99.90;;;;;;4992816;28;20535;-54
2022/03/08 04:06:39;;;;;;;3.50;3.20;;;-2.50;99.90;;;;;;4994338;28;20535;-53
2022/03/08 04:09:06;;;;;;;3.70;3.50;;;-2.50;99.90;;;;;;4993307;28;20504;-53
2022/03/08 04:11:33;;;;;;;4.50;4.07;;;-2.60;99.90;;;;;;4996179;28;20472;-53
2022/03/08 04:14:00;;;;;;;3.70;3.50;;;-2.50;91.00;;;;;;5006092;28;21058;-54
2022/03/08 04:16:27;;;;;;;3.77;3.47;;;-2.50;93.60;;;;;;5006490;28;20456;-54
2022/03/08 04:18:53;;;;;;;4.10;3.80;;;-2.50;92.50;;;;;;5018102;22;20515;-53
2022/03/08 04:21:21;;;;;;;5.83;3.60;;;-2.50;99.90;;;;;;5008576;28;20487;-53
2022/03/08 04:23:48;;;;;;;4.10;3.70;;;-2.60;97.70;;;;;;5002208;28;20559;-54
2022/03/08 04:26:14;;;;;;;3.70;3.40;;;-2.60;99.70;;;;;;5008704;28;20448;-52
2022/03/08 04:28:41;;;;;;;3.60;3.30;;;-2.60;98.00;;;;;;5002268;28;20547;-53
2022/03/08 04:31:07;;;;;;;3.50;3.20;;;-2.60;99.20;;;;;;4999146;28;20535;-55
2022/03/08 04:33:34;;;;;;;7.20;3.80;;;-2.60;99.90;;;;;;5003290;28;20592;-53
2022/03/08 04:36:00;;;;;;;3.90;3.60;;;-2.60;99.90;;;;;;5004517;28;20502;-52
2022/03/08 04:38:28;;;;;;;3.50;3.20;;;-2.70;99.90;;;;;;5012111;28;20861;-53
2022/03/08 04:40:55;;;;;;;4.17;3.87;;;-2.70;99.90;;;;;;5005400;28;20526;-52
2022/03/08 04:43:21;;;;;;;3.50;3.30;;;-2.70;99.90;;;;;;4996193;28;20548;-54
2022/03/08 04:45:48;;;;;;;3.97;3.60;;;-2.70;99.90;;;;;;5001991;28;20551;-54
2022/03/08 04:48:16;;;;;;;4.40;2.97;;;-2.80;99.90;;;;;;4993517;28;21036;-54
2022/03/08 04:50:42;;;;;;;3.30;3.00;;;-2.70;99.90;;;;;;5003041;28;20546;-54
2022/03/08 04:53:09;;;;;;;4.87;3.40;;;-2.70;99.90;;;;;;5009224;28;20574;-54
2022/03/08 04:55:37;;;;;;;3.53;3.00;;;-2.70;99.90;;;;;;5000775;28;20464;-54
2022/03/08 04:58:04;;;;;;;3.37;3.13;;;-2.80;99.90;;;;;;5004545;28;20552;-55
2022/03/08 05:00:31;;;;;;;12.57;3.87;;;-2.80;99.10;;;;;;5005033;28;20573;-54
2022/03/08 05:02:57;;;;;;;4.13;3.57;;;-2.90;96.80;;;;;;4997887;28;20489;-54
2022/03/08 05:05:24;;;;;;;3.70;3.10;;;-2.80;89.90;;;;;;5008957;28;20507;-54
2022/03/08 05:07:51;;;;;;;3.43;3.20;;;-2.80;90.30;;;;;;4999155;28;20543;-54
2022/03/08 05:10:17;;;;;;;3.47;3.17;;;-2.80;92.30;;;;;;5001877;28;20551;-54
2022/03/08 05:12:46;;;;;;;3.93;3.10;;;-2.90;99.80;;;;;;5009795;28;20550;-54
2022/03/08 05:15:12;;;;;;;4.33;3.30;;;-2.90;99.90;;;;;;5002932;28;20962;-53
2022/03/08 05:17:39;;;;;;;3.47;3.20;;;-2.90;99.90;;;;;;4998064;28;20480;-54
2022/03/08 05:20:08;;;;;;;3.70;3.40;;;-3.00;99.90;;;;;;5001968;28;20537;-53
2022/03/08 05:22:34;;;;;;;3.50;3.30;;;-2.90;99.90;;;;;;5009563;28;20893;-54
2022/03/08 05:25:01;;;;;;;4.70;3.60;;;-2.90;99.90;;;;;;4995207;28;20484;-55
2022/03/08 05:27:27;;;;;;;3.47;3.10;;;-2.90;99.90;;;;;;5002614;28;20799;-52
2022/03/08 05:29:55;;;;;;;3.57;3.33;;;-2.90;99.90;;;;;;5003135;28;20996;-52
2022/03/08 05:32:22;;;;;;;6.10;3.60;;;-2.90;99.90;;;;;;4997365;28;20472;-54
2022/03/08 05:34:49;;;;;;;4.13;3.30;;;-2.80;99.90;;;;;;5001408;28;20487;-53
2022/03/08 05:37:16;;;;;;;6.37;4.70;;;-2.90;99.90;;;;;;5015063;28;20463;-54
2022/03/08 05:39:43;;;;;;;4.80;4.30;;;-2.90;99.90;;;;;;5011614;28;20499;-49
2022/03/08 05:42:09;;;;;;;3.67;3.37;;;-2.90;97.60;;;;;;4996555;28;20476;-49
2022/03/08 05:44:36;;;;;;;5.97;4.23;;;-2.90;95.00;;;;;;5003691;28;20500;-51
2022/03/08 05:47:05;;;;;;;3.93;3.63;;;-3.00;86.20;;;;;;4999599;28;20467;-49
2022/03/08 05:49:31;;;;;;;7.30;3.50;;;-2.90;88.80;;;;;;5008893;28;21240;-49
2022/03/08 05:51:58;;;;;;;4.00;3.70;;;-3.00;86.60;;;;;;5015270;28;20487;-50
2022/03/08 05:54:25;;;;;;;3.53;3.23;;;-3.00;88.80;;;;;;5010100;28;20487;-52
2022/03/08 05:56:52;;;;;;;3.43;2.97;;;-2.90;99.90;;;;;;4996613;28;20539;-53
2022/03/08 05:59:18;;;;;;;4.33;3.63;;;-2.90;99.90;;;;;;5000186;28;20496;-51
2022/03/08 06:01:45;;;;;;;3.40;3.15;;;-2.90;99.90;;;;;;5012240;28;20509;-50
2022/03/08 06:04:13;;;;;;;6.30;4.13;;;-3.00;95.40;;;;;;5000897;28;20205;-51
2022/03/08 06:06:39;;;;;;;5.93;5.37;;;-3.00;86.70;;;;;;5012536;28;20558;-50
2022/03/08 06:09:06;;;;;;;4.60;3.97;;;-2.90;98.10;;;;;;5008351;28;20932;-50
2022/03/08 06:11:32;;;;;;;5.10;4.60;;;-2.90;92.60;;;;;;5014725;28;20490;-50
2022/03/08 06:13:59;;;;;;;4.77;4.37;;;-2.80;98.30;;;;;;5007960;28;20562;-51
2022/03/08 06:16:26;;;;;;;12.23;5.50;;;-2.80;99.90;;;;;;4999079;28;20522;-50
2022/03/08 06:18:55;;;;;;;8.97;7.30;;;-2.70;99.90;;;;;;4995173;28;20617;-50
2022/03/08 06:21:23;;;;;;;13.20;10.17;;;-2.60;99.90;;;;;;5013191;28;20541;-51
2022/03/08 06:23:49;;;;;;;37.77;25.30;;;-2.60;99.90;;;;;;5013003;28;20464;-51
2022/03/08 06:26:16;;;;;;;70.03;41.63;;;-2.60;99.90;;;;;;5002287;28;20500;-50
2022/03/08 06:28:43;;;;;;;127.47;72.83;;;-2.50;99.90;;;;;;5005213;28;20543;-51
2022/03/08 06:31:09;;;;;;;93.43;56.33;;;-2.50;99.90;;;;;;5004578;28;20555;-51
2022/03/08 06:33:36;;;;;;;98.93;61.67;;;-2.40;99.90;;;;;;5006873;28;20974;-51
2022/03/08 06:36:02;;;;;;;91.10;53.80;;;-2.20;99.90;;;;;;5003609;28;20547;-51
2022/03/08 06:38:30;;;;;;;67.80;42.23;;;-2.00;99.90;;;;;;4998741;28;20965;-50
2022/03/08 06:40:57;;;;;;;34.30;22.23;;;-1.90;99.90;;;;;;5007975;28;20566;-51
2022/03/08 06:43:23;;;;;;;62.83;34.43;;;-1.80;99.90;;;;;;5008124;28;20538;-51
2022/03/08 06:45:50;;;;;;;24.10;17.27;;;-1.60;99.90;;;;;;5005908;28;20484;-51
2022/03/08 06:48:17;;;;;;;16.47;10.60;;;-1.60;99.90;;;;;;5004595;28;20463;-51
2022/03/08 06:50:43;;;;;;;12.57;8.47;;;-1.60;99.90;;;;;;5014030;28;20900;-51
2022/03/08 06:53:10;;;;;;;22.00;15.20;;;-1.50;99.90;;;;;;5021715;28;20474;-51
2022/03/08 06:55:38;;;;;;;33.27;21.60;;;-1.30;99.90;;;;;;5004600;28;20539;-52
2022/03/08 06:58:05;;;;;;;39.10;24.00;;;-1.20;99.90;;;;;;5007285;28;20449;-51
2022/03/08 07:00:32;;;;;;;27.83;17.80;;;-1.20;99.90;;;;;;5019651;28;20493;-51
2022/03/08 07:02:58;;;;;;;35.40;16.70;;;-1.10;99.90;;;;;;5011057;28;20970;-52
2022/03/08 07:05:25;;;;;;;21.03;15.13;;;-1.00;99.90;;;;;;5009736;28;20480;-52
2022/03/08 07:07:52;;;;;;;20.50;15.47;;;-0.70;99.90;;;;;;4999228;28;20452;-51
2022/03/08 07:10:18;;;;;;;20.10;14.20;;;-0.60;99.90;;;;;;5007623;28;20566;-52
2022/03/08 07:12:46;;;;;;;21.63;13.57;;;-0.30;99.90;;;;;;5007453;28;20507;-52
2022/03/08 07:15:14;;;;;;;15.23;11.67;;;0.00;99.90;;;;;;5004241;28;21080;-52
2022/03/08 07:17:44;;;;;;;10.10;8.90;;;0.20;99.90;;;;;;4999481;28;20897;-52
2022/03/08 07:20:12;;;;;;;7.40;6.67;;;0.30;99.90;;;;;;5005208;28;20571;-52
2022/03/08 07:22:39;;;;;;;6.07;5.57;;;0.30;99.90;;;;;;5004029;28;20469;-51
2022/03/08 07:25:07;;;;;;;9.03;6.20;;;0.30;99.90;;;;;;5006153;28;20559;-51
2022/03/08 07:27:33;;;;;;;13.00;7.57;;;0.40;99.90;;;;;;5004390;28;20448;-51
2022/03/08 07:30:02;;;;;;;7.40;6.70;;;0.60;99.90;;;;;;4995439;28;20519;-51
2022/03/08 07:32:29;;;;;;;7.90;6.80;;;1.00;99.90;;;;;;4994534;28;20456;-51
2022/03/08 07:34:55;;;;;;;6.97;6.23;;;1.10;99.90;;;;;;4995235;28;20527;-51
2022/03/08 07:37:22;;;;;;;10.97;5.27;;;1.20;99.90;;;;;;4996010;28;20536;-51
2022/03/08 07:39:49;;;;;;;6.13;5.17;;;1.30;99.90;;;;;;4994222;28;20564;-52
2022/03/08 07:42:15;;;;;;;11.40;5.37;;;1.40;99.90;;;;;;5004124;28;20590;-51
2022/03/08 07:44:42;;;;;;;10.60;4.90;;;1.60;99.90;;;;;;5007524;28;20490;-51
2022/03/08 07:47:10;;;;;;;7.33;5.37;;;1.90;99.90;;;;;;5004089;28;20488;-52
2022/03/08 07:49:37;;;;;;;8.90;5.57;;;2.10;99.90;;;;;;5001188;28;20550;-51
2022/03/08 07:52:05;;;;;;;9.07;5.37;;;2.40;99.90;;;;;;5012483;28;20493;-52
2022/03/08 07:54:31;;;;;;;7.93;4.93;;;3.00;29.90;;;;;;5005823;28;20476;-51
2022/03/08 07:56:58;;;;;;;4.97;4.47;;;3.40;42.60;;;;;;5001664;28;20555;-51
2022/03/08 07:59:26;;;;;;;6.77;5.00;;;4.00;60.90;;;;;;5004276;28;20523;-51
2022/03/08 08:01:52;;;;;;;7.17;5.30;;;4.40;79.60;;;;;;5002246;28;20515;-51
2022/03/08 08:04:20;;;;;;;12.97;6.10;;;4.80;93.40;;;;;;5005443;28;20542;-50
2022/03/08 08:06:47;;;;;;;19.93;7.10;;;5.20;99.90;;;;;;5003386;28;20450;-51
2022/03/08 08:09:13;;;;;;;16.10;7.17;;;5.50;99.90;;;;;;5001082;28;20604;-50
2022/03/08 08:11:40;;;;;;;23.53;7.90;;;6.00;99.90;;;;;;5006657;28;20550;-51
2022/03/08 08:14:07;;;;;;;20.57;7.00;;;6.70;99.90;;;;;;5000973;28;21068;-51
2022/03/08 08:16:33;;;;;;;36.03;9.10;;;6.70;99.90;;;;;;5006185;28;20873;-50
2022/03/08 08:19:00;;;;;;;13.73;6.93;;;6.50;99.90;;;;;;5001797;28;20561;-52
2022/03/08 08:21:28;;;;;;;12.57;8.97;;;6.50;99.90;;;;;;4994731;28;20458;-51
2022/03/08 08:23:55;;;;;;;11.40;8.47;;;6.20;99.90;;;;;;5000322;28;20475;-51
2022/03/08 08:26:21;;;;;;;13.50;9.10;;;6.10;99.90;;;;;;5000052;28;20465;-51
2022/03/08 08:28:48;;;;;;;12.10;9.07;;;6.00;99.90;;;;;;4996039;28;20531;-51
2022/03/08 08:31:14;;;;;;;14.17;8.00;;;6.00;99.90;;;;;;4995372;28;20453;-51
2022/03/08 08:33:41;;;;;;;10.60;7.40;;;6.10;99.90;;;;;;5005573;28;20551;-52
2022/03/08 08:36:07;;;;;;;13.97;7.70;;;6.50;99.90;;;;;;5011775;28;20510;-51
2022/03/08 08:38:35;;;;;;;10.60;7.87;;;7.10;99.90;;;;;;5009040;28;20972;-51
2022/03/08 08:41:02;;;;;;;8.13;5.83;;;7.00;99.90;;;;;;5007286;28;20529;-51
2022/03/08 08:43:28;;;;;;;9.57;7.17;;;7.00;99.90;;;;;;5008184;28;20936;-55
2022/03/08 08:45:55;;;;;;;9.23;8.30;;;7.30;99.90;;;;;;5007281;28;20540;-51
2022/03/08 08:48:24;;;;;;;10.97;5.97;;;7.50;99.90;;;;;;5005240;28;20468;-51
2022/03/08 08:50:51;;;;;;;8.50;6.10;;;7.20;99.90;;;;;;5021390;28;20550;-51
2022/03/08 08:53:18;;;;;;;6.97;6.03;;;7.90;99.90;;;;;;5018207;28;20874;-51
2022/03/08 08:55:46;;;;;;;9.70;7.07;;;8.20;99.90;;;;;;5005384;28;20586;-51
2022/03/08 08:58:13;;;;;;;7.13;5.67;;;8.30;99.90;;;;;;5011866;28;20459;-51
2022/03/08 09:00:39;;;;;;;7.33;5.23;;;8.30;99.90;;;;;;5002912;28;20551;-51
2022/03/08 09:03:09;;;;;;;16.60;6.90;;;8.40;99.90;;;;;;4994571;28;20480;-51
2022/03/08 09:05:36;;;;;;;5.97;5.47;;;9.20;99.90;;;;;;5010073;28;20456;-52
2022/03/08 09:08:03;;;;;;;8.40;6.10;;;10.10;99.90;;;;;;4997310;28;20888;-51
2022/03/08 09:10:30;;;;;;;12.40;6.33;;;9.90;99.90;;;;;;5008847;28;20558;-51
2022/03/08 09:12:58;;;;;;;6.97;5.23;;;10.20;99.90;;;;;;5007985;28;21000;-51
2022/03/08 09:15:24;;;;;;;6.90;5.37;;;10.50;99.90;;;;;;5004825;28;20570;-51
2022/03/08 09:17:51;;;;;;;7.90;5.30;;;10.70;99.90;;;;;;4999193;28;20492;-51
2022/03/08 09:20:17;;;;;;;8.07;5.80;;;10.40;99.90;;;;;;5011876;28;21159;-51
2022/03/08 09:22:44;;;;;;;8.40;5.47;;;11.60;99.90;;;;;;5002457;28;20578;-51
2022/03/08 09:25:11;;;;;;;6.40;4.77;;;12.30;99.90;;;;;;4992578;28;20472;-51
2022/03/08 09:27:37;;;;;;;14.40;4.60;;;12.10;99.90;;;;;;5008131;28;20483;-51
2022/03/08 09:30:06;;;;;;;7.83;5.13;;;11.30;99.90;;;;;;5008931;28;20492;-52
2022/03/08 09:32:33;;;;;;;9.10;4.60;;;11.10;99.90;;;;;;5002454;28;20531;-51
2022/03/08 09:35:00;;;;;;;11.77;4.40;;;10.60;99.90;;;;;;5002893;28;21092;-51
2022/03/08 09:37:26;;;;;;;12.40;7.00;;;10.90;99.90;;;;;;5011746;28;20475;-52
2022/03/08 09:39:53;;;;;;;4.90;3.70;;;10.80;99.90;;;;;;5011949;28;21028;-51
2022/03/08 09:42:21;;;;;;;4.90;3.73;;;11.00;99.90;;;;;;5005152;28;20540;-51
2022/03/08 09:44:49;;;;;;;6.40;3.83;;;11.40;99.90;;;;;;4993536;28;20449;-51
2022/03/08 09:47:18;;;;;;;5.80;3.80;;;12.10;99.90;;;;;;4992824;28;20467;-52
2022/03/08 09:49:45;;;;;;;4.80;4.10;;;11.40;99.90;;;;;;5010027;28;20530;-51
2022/03/08 09:52:12;;;;;;;3.30;2.97;;;11.30;99.90;;;;;;5006071;28;20503;-52
2022/03/08 09:54:39;;;;;;;3.87;3.03;;;12.30;99.90;;;;;;5003895;28;20507;-51
2022/03/08 09:57:09;;;;;;;3.13;2.90;;;11.80;99.90;;;;;;5002980;28;20527;-51
2022/03/08 09:59:36;;;;;;;3.90;3.60;;;10.90;99.90;;;;;;4992004;28;20468;-51
2022/03/08 10:02:02;;;;;;;10.23;3.20;;;11.20;99.90;;;;;;5003581;28;20539;-52
2022/03/08 10:04:31;;;;;;;8.40;3.40;;;11.50;99.90;;;;;;5011949;28;20531;-52
2022/03/08 10:06:58;;;;;;;2.90;2.80;;;12.10;99.90;;;;;;5011890;28;20444;-52
2022/03/08 10:09:26;;;;;;;3.20;2.60;;;12.10;99.90;;;;;;5011673;28;20554;-51
2022/03/08 10:11:53;;;;;;;8.23;3.40;;;12.90;99.90;;;;;;5002804;28;20480;-51
2022/03/08 10:14:31;;;;;;;2.90;2.70;;;12.80;99.90;;;;;;5007705;28;20483;-51
2022/03/08 10:16:57;;;;;;;4.53;3.17;;;12.50;99.90;;;;;;4993402;28;20437;-52
2022/03/08 10:19:24;;;;;;;5.37;4.60;;;12.70;99.90;;;;;;5000983;28;20533;-51
2022/03/08 10:21:54;;;;;;;11.90;4.67;;;12.50;99.90;;;;;;5065871;22;20517;-50
2022/03/08 10:24:23;;;;;;;5.83;5.00;;;13.30;99.90;;;;;;5053184;28;20450;-49
2022/03/08 10:26:55;;;;;;;4.07;3.40;;;13.20;99.90;;;;;;5052966;28;20541;-49
2022/03/08 10:29:23;;;;;;;4.20;3.67;;;12.20;99.90;;;;;;5049953;28;20468;-50
2022/03/08 10:31:50;;;;;;;6.57;3.50;;;13.30;99.90;;;;;;5029526;28;20477;-50
2022/03/08 10:34:17;;;;;;;7.00;4.87;;;13.10;99.90;;;;;;5025611;28;20494;-49
2022/03/08 10:37:01;;;;;;;7.13;4.83;;;12.60;99.90;;;;;;5025644;28;20454;-49
2022/03/08 10:39:28;;;;;;;6.67;3.93;;;11.90;99.90;;;;;;5023171;28;20921;-50
2022/03/08 10:41:58;;;;;;;5.13;3.80;;;11.80;99.90;;;;;;5027276;28;20517;-49
2022/03/08 10:44:37;;;;;;;5.40;3.70;;;11.10;99.90;;;;;;5031943;28;20494;-50
2022/03/08 10:47:06;;;;;;;3.83;3.40;;;11.20;99.90;;;;;;5031279;28;20482;-50
2022/03/08 10:49:34;;;;;;;3.43;2.87;;;10.90;99.90;;;;;;5029362;28;20463;-49
2022/03/08 10:52:04;;;;;;;20.17;3.30;;;11.70;99.90;;;;;;5025687;28;20570;-49
2022/03/08 10:54:31;;;;;;;2.70;2.60;;;12.50;99.90;;;;;;5030108;28;21036;-49
2022/03/08 10:56:58;;;;;;;3.20;2.93;;;12.60;99.90;;;;;;5023024;28;20489;-50
2022/03/08 10:59:25;;;;;;;3.80;3.07;;;12.90;99.90;;;;;;5026709;28;20554;-49
2022/03/08 11:01:52;;;;;;;7.07;2.73;;;13.50;99.90;;;;;;5023878;28;20573;-50
2022/03/08 11:04:21;;;;;;;2.83;2.63;;;12.10;99.90;;;;;;5030458;28;20551;-50
2022/03/08 11:06:52;;;;;;;7.27;3.80;;;11.90;99.90;;;;;;5024518;28;20553;-50
2022/03/08 11:09:21;;;;;;;5.10;2.80;;;11.70;99.90;;;;;;5023524;28;20533;-49
2022/03/08 11:11:48;;;;;;;3.20;3.00;;;11.20;99.90;;;;;;5018532;28;20926;-49
2022/03/08 11:14:15;;;;;;;8.53;2.50;;;11.20;99.90;;;;;;5015439;28;20562;-50
2022/03/08 11:16:46;;;;;;;3.40;3.20;;;11.10;99.90;;;;;;5014551;28;21032;-50
2022/03/08 11:19:14;;;;;;;5.63;2.47;;;11.20;99.90;;;;;;5013427;28;20546;-50
2022/03/08 11:21:41;;;;;;;4.30;2.80;;;11.30;99.90;;;;;;5018106;28;20601;-50
2022/03/08 11:24:09;;;;;;;9.20;2.90;;;11.40;99.90;;;;;;5010421;28;21027;-49
2022/03/08 11:26:38;;;;;;;5.43;3.27;;;11.40;99.90;;;;;;5007721;28;21007;-50
2022/03/08 11:29:05;;;;;;;2.60;2.40;;;12.50;99.90;;;;;;5013270;28;20908;-49
2022/03/08 11:31:35;;;;;;;4.10;2.57;;;12.20;99.90;;;;;;5011372;28;20588;-51
2022/03/08 11:34:09;;;;;;;4.47;2.43;;;11.80;99.90;;;;;;5011104;28;20459;-49
2022/03/08 11:36:38;;;;;;;4.73;2.70;;;12.20;99.90;;;;;;5022607;28;21019;-50
2022/03/08 11:39:20;;;;;;;2.50;2.40;;;12.20;99.90;;;;;;5026189;28;20554;-49
2022/03/08 11:41:51;;;;;;;2.33;2.10;;;11.80;99.90;;;;;;5025374;28;20560;-51
2022/03/08 11:44:23;;;;;;;18.43;2.47;;;12.20;99.90;;;;;;5035001;28;20545;-49
2022/03/08 11:47:00;;;;;;;4.10;2.30;;;11.70;99.90;;;;;;5025948;28;20719;-50
2022/03/08 11:49:45;;;;;;;2.47;2.27;;;11.40;99.90;;;;;;5043264;28;20549;-50
2022/03/08 11:52:15;;;;;;;2.00;1.90;;;10.70;99.90;;;;;;5022208;28;20552;-49
2022/03/08 11:54:42;;;;;;;8.30;2.50;;;11.20;99.90;;;;;;5028140;28;21042;-49
2022/03/08 11:57:09;;;;;;;3.67;2.80;;;11.40;99.90;;;;;;5025184;28;20574;-50
2022/03/08 11:59:36;;;;;;;3.53;2.53;;;11.20;99.90;;;;;;5027957;28;20554;-50
2022/03/08 12:02:04;;;;;;;4.77;2.43;;;11.10;99.90;;;;;;5029289;28;20519;-49
2022/03/08 12:04:44;;;;;;;2.13;2.03;;;11.30;99.90;;;;;;5029579;28;20451;-50
2022/03/08 12:07:25;;;;;;;2.63;2.43;;;11.10;99.90;;;;;;5033974;28;20942;-50
2022/03/08 12:10:24;;;;;;;3.57;3.17;;;10.90;99.90;;;;;;5029520;28;20457;-49
2022/03/08 12:12:53;;;;;;;4.20;2.53;;;10.90;99.90;;;;;;5040083;28;21048;-50
2022/03/08 12:15:20;;;;;;;9.27;2.17;;;11.20;99.90;;;;;;5028244;28;20493;-50
2022/03/08 12:18:17;;;;;;;10.80;2.50;;;11.40;99.90;;;;;;5031909;28;20446;-50
2022/03/08 12:20:43;;;;;;;2.47;2.27;;;11.60;99.90;;;;;;5025084;28;20486;-50
2022/03/08 12:23:10;;;;;;;3.50;2.57;;;11.20;99.90;;;;;;5037612;28;20490;-50
2022/03/08 12:25:37;;;;;;;18.77;2.47;;;11.30;99.90;;;;;;5037537;28;20541;-50
2022/03/08 12:28:05;;;;;;;4.87;2.60;;;11.60;99.90;;;;;;5028801;28;20549;-49
2022/03/08 12:31:05;;;;;;;3.00;2.47;;;11.60;99.90;;;;;;5024698;28;20995;-49
2022/03/08 12:34:03;;;;;;;2.20;2.00;;;11.50;99.90;;;;;;5027532;28;20557;-49
2022/03/08 12:36:29;;;;;;;2.63;2.43;;;11.70;99.90;;;;;;5023885;28;20609;-49
2022/03/08 12:38:56;;;;;;;4.60;1.83;;;11.60;99.90;;;;;;5031092;28;20907;-49
2022/03/08 12:41:25;;;;;;;3.20;2.67;;;11.80;99.90;;;;;;5023230;28;20903;-49
2022/03/08 12:43:59;;;;;;;5.20;2.60;;;11.80;99.90;;;;;;5031424;28;20477;-50
2022/03/08 12:46:26;;;;;;;2.53;2.00;;;11.90;99.90;;;;;;5031530;28;20541;-49
2022/03/08 12:48:53;;;;;;;4.90;2.30;;;12.00;99.90;;;;;;5023828;28;20490;-50